Station: Oodnadatta  

  Atmospheric Gas Attenuation - ITU Rec 676-11   ----------------- dB/100km -----------------
Date Time Temp RH % AH g/m3 Dew Point Wind Direction Speed kph Gust kph Barometer mB Rainfall Since 9am 24GHz 47GHz 76GHz 122GHz 134GHz 241GHz
08/05 12:00 17.9 35 5.34 2.2 28 46 1030.1 0 12.5 20.6 26.8 69.5 55.9 189.7
08/05 11:50 18 36 5.53 2.7 30 33 1030.3 0 12.9 20.8 27.4 71.1 58.0 197.0
08/05 11:40 17.6 36 5.4 2.4 30 35 1030.4 0 12.7 20.7 27.1 70.3 56.8 192.8
08/05 11:30 17.8 37 5.62 2.9 28 39 1030.4 0 13.1 21.0 27.8 72.1 59.1 201.1
08/05 11:20 17.4 37 5.48 2.6 28 32 1030.7 0 12.8 20.9 27.4 71.2 57.9 196.5
08/05 11:10 17.2 38 5.56 2.8 24 28 1030.8 0 13.0 21.1 27.8 72.1 58.9 200.2
08/05 11:00 17.1 38 5.53 2.7 26 35 1031.1 0 13.0 21.1 27.7 72.0 58.7 199.3
08/05 10:50 16.5 39 5.48 2.5 30 33 1031.1 0 12.9 21.1 27.7 72.0 58.5 198.7
08/05 10:40 16.5 39 5.48 2.5 26 30 1031.1 0 12.9 21.1 27.7 72.0 58.5 198.7
08/05 10:30 15.7 40 5.35 2.2 26 33 1031.3 0 12.6 21.1 27.6 71.5 57.6 195.5
08/05 10:20 15.6 40 5.32 2.1 26 30 1031.3 0 12.6 21.1 27.5 71.3 57.3 194.5
08/05 10:10 15.9 41 5.55 2.7 26 30 1031.4 0 13.0 21.4 28.2 73.2 59.8 203.1
08/05 10:00 15.3 42 5.48 2.5 26 32 1031.5 0 12.9 21.4 28.2 73.1 59.4 201.7
08/05 09:50 15.3 43 5.62 2.8 22 26 1031.5 0 13.2 21.6 28.7 74.4 61.1 207.5
08/05 09:40 15 46 5.9 3.5 20 24 1031.5 0 13.8 22.1 29.8 77.4 64.6 219.9
08/05 09:30 14.3 48 5.9 3.5 24 30 1031.5 0 13.8 22.3 30.0 78.1 65.2 221.8
08/05 09:20 14.4 52 6.43 4.7 22 30 1031.2 0 14.9 23.0 31.9 83.1 71.5 243.9
08/05 09:10 13.5 53 6.2 4.1 28 32 1031.2 0 14.5 22.9 31.4 81.8 69.4 236.7
08/05 09:00 13.4 58 6.74 5.3 20 28 1031.3 0 15.6 23.7 33.5 87.3 76.2 260.6
08/05 08:50 12.9 64 7.21 6.3 15 20 1031.2 0 16.7 24.6 35.5 92.7 82.7 283.2
08/05 08:40 12.1 68 7.29 6.4 19 20 1031.2 0 16.9 24.9 36.2 94.5 84.6 289.7
08/05 08:30 10.1 70 6.62 4.9 7 9 1031.2 0 15.5 24.4 34.4 89.7 77.9 266.0
08/05 08:20 9.1 70 6.21 3.9 7 7 1031.1 0 14.7 24.0 33.2 86.5 73.6 250.5
08/05 08:10 8.5 71 6.06 3.6 7 9 1031 0 14.4 24.0 32.9 85.6 72.1 245.6
08/05 08:00 7.8 72 5.88 3.1 2 6 1030.9 0 14.0 23.8 32.4 84.4 70.4 239.4
08/05 07:50 7.4 73 5.81 2.9 4 6 1030.8 0 13.9 23.8 32.3 84.1 69.9 237.4
08/05 07:40 6.8 72 5.51 2.1 7 9 1030.6 0 13.3 23.5 31.3 81.5 66.5 225.4
08/05 07:30 6.6 73 5.51 2.1 9 11 1030.5 0 13.3 23.6 31.4 81.7 66.6 225.9
08/05 07:20 6.3 74 5.48 2 9 9 1030.3 0 13.2 23.6 31.4 81.7 66.5 225.4
08/05 07:10 6.2 74 5.45 1.9 9 9 1030.1 0 13.2 23.5 31.3 81.4 66.2 224.2
08/05 07:00 6.2 75 5.52 2.1 7 9 1030.1 0 13.3 23.7 31.6 82.2 67.1 227.4
08/05 06:50 6.3 75 5.55 2.2 7 7 1030 0 13.4 23.7 31.7 82.4 67.4 228.5
08/05 06:40 6.3 75 5.55 2.2 6 7 1029.9 0 13.4 23.7 31.7 82.4 67.4 228.5
08/05 06:30 6.6 75 5.66 2.5 9 11 1029.9 0 13.6 23.8 32.0 83.2 68.6 232.7
08/05 06:20 6.6 75 5.66 2.5 9 11 1029.7 0 13.6 23.8 32.0 83.2 68.5 232.7
08/05 06:10 6.6 75 5.66 2.5 0 0 1029.6 0 13.6 23.8 32.0 83.2 68.5 232.6
08/05 06:00 6.6 74 5.59 2.3 0 0 1029.5 0 13.4 23.6 31.7 82.5 67.6 229.4
08/05 05:50 6.6 72 5.44 1.9 0 0 1029.4 0 13.1 23.4 31.1 80.9 65.7 222.5
08/05 05:40 6.8 69 5.28 1.5 0 2 1029.2 0 12.8 23.1 30.4 79.0 63.4 214.6
08/05 05:30 7.2 70 5.5 2.1 7 7 1029.2 0 13.2 23.3 31.1 80.9 65.9 223.5
08/05 05:20 7.4 68 5.41 1.9 7 7 1029.1 0 13.0 23.1 30.7 79.7 64.6 218.9
08/05 05:10 7.8 67 5.47 2.1 6 7 1029.1 0 13.1 23.1 30.7 79.9 65.0 220.5
08/05 05:00 8.2 69 5.78 2.9 7 9 1029.1 0 13.8 23.5 31.8 82.8 68.7 233.3
08/05 04:50 8.1 70 5.83 3 7 7 1029.1 0 13.9 23.6 32.0 83.4 69.4 235.9
08/05 04:40 8.1 69 5.74 2.8 6 6 1029.1 0 13.7 23.5 31.7 82.4 68.2 231.8
08/05 04:30 7.6 68 5.48 2.1 11 15 1029 0 13.2 23.2 30.9 80.2 65.3 221.5
08/05 04:20 8 68 5.62 2.5 13 13 1028.8 0 13.5 23.3 31.2 81.3 66.8 226.6
08/05 04:10 8.4 67 5.69 2.6 13 13 1028.8 0 13.6 23.3 31.4 81.6 67.3 228.6
08/05 04:00 8.7 66 5.71 2.7 15 17 1028.8 0 13.6 23.3 31.3 81.5 67.3 228.7
08/05 03:50 9 65 5.73 2.8 15 17 1028.7 0 13.7 23.2 31.3 81.4 67.3 228.7
08/05 03:40 9.2 65 5.81 3 15 15 1028.6 0 13.8 23.3 31.5 82.0 68.2 231.7
08/05 03:30 9.2 65 5.81 3 15 17 1028.6 0 13.8 23.3 31.5 82.0 68.2 231.7
08/05 03:20 9.1 65 5.77 2.9 15 15 1028.6 0 13.7 23.2 31.4 81.7 67.7 230.2
08/05 03:10 9 64 5.64 2.6 15 15 1028.6 0 13.5 23.1 30.9 80.4 66.2 224.6
08/05 03:00 9 63 5.56 2.3 11 15 1028.6 0 13.3 22.9 30.6 79.6 65.1 221.1
08/05 02:50 9.3 61 5.48 2.2 13 13 1028.6 0 13.1 22.7 30.2 78.5 63.9 216.7
08/05 02:40 9.8 60 5.57 2.4 13 15 1028.6 0 13.3 22.8 30.4 78.9 64.6 219.3
08/05 02:30 10.1 59 5.58 2.5 15 17 1028.6 0 13.3 22.7 30.3 78.7 64.5 218.9
08/05 02:20 10.4 58 5.59 2.5 15 15 1028.7 0 13.3 22.6 30.2 78.5 64.4 218.6
08/05 02:10 10.9 57 5.67 2.7 17 20 1028.7 0 13.5 22.6 30.3 78.9 65.0 220.7
08/05 02:00 10.5 59 5.72 2.8 17 20 1028.7 0 13.6 22.8 30.7 79.8 65.9 224.0
08/05 01:50 9 61 5.38 1.9 15 20 1028.7 0 12.9 22.7 29.9 77.8 62.9 213.1
08/05 01:40 9.1 60 5.33 1.8 11 13 1028.8 0 12.8 22.6 29.7 77.2 62.2 210.7
08/05 01:30 9.3 59 5.3 1.7 11 13 1028.9 0 12.7 22.5 29.5 76.7 61.7 208.9
08/05 01:20 9.8 59 5.48 2.2 11 11 1028.9 0 13.1 22.6 30.0 78.0 63.5 215.4
08/05 01:10 9.7 59 5.44 2.1 11 11 1028.9 0 13.0 22.6 29.9 77.7 63.1 213.9
08/05 01:00 9.8 60 5.57 2.4 7 9 1028.9 0 13.3 22.8 30.4 79.0 64.6 219.4
08/05 00:50 9.8 60 5.57 2.4 7 7 1028.9 0 13.3 22.8 30.4 79.0 64.6 219.4
08/05 00:40 9.9 58 5.42 2 9 9 1028.9 0 13.0 22.5 29.8 77.3 62.7 212.5
08/05 00:30 10.2 59 5.62 2.6 11 13 1028.9 0 13.4 22.8 30.4 79.1 64.9 220.5
08/05 00:20 10.3 59 5.65 2.7 11 11 1028.9 0 13.4 22.8 30.5 79.3 65.2 221.5
08/05 00:10 10.3 58 5.56 2.4 13 13 1028.9 0 13.3 22.6 30.1 78.4 64.1 217.6
08/05 00:00 10.5 57 5.53 2.4 13 15 1029 0 13.2 22.5 30.0 77.9 63.6 215.7
07/05 23:50 11 57 5.71 2.8 15 15 1028.9 0 13.5 22.7 30.4 79.2 65.4 222.2
07/05 23:40 11.2 56 5.68 2.8 15 17 1029 0 13.5 22.6 30.3 78.7 64.9 220.4
07/05 23:30 11.5 56 5.79 3 17 19 1028.9 0 13.7 22.7 30.6 79.5 66.0 224.3
07/05 23:20 11.7 54 5.65 2.7 15 15 1028.9 0 13.4 22.4 30.0 77.9 64.1 217.7
07/05 23:10 12.4 52 5.68 2.8 15 15 1029 0 13.4 22.3 29.8 77.5 63.9 217.1
07/05 23:00 12.9 51 5.75 3 17 17 1029 0 13.6 22.3 29.9 77.7 64.3 218.7
07/05 22:50 13.1 51 5.82 3.2 17 17 1029 0 13.7 22.3 30.1 78.2 65.0 221.2
07/05 22:40 13.6 50 5.88 3.4 17 19 1029 0 13.8 22.3 30.1 78.3 65.3 222.4
07/05 22:30 13.9 49 5.87 3.4 19 22 1028.9 0 13.8 22.2 30.0 77.9 65.0 221.1
07/05 22:20 14.1 50 6.07 3.8 19 20 1029 0 14.2 22.5 30.6 79.7 67.2 229.0
07/05 22:10 13.5 53 6.2 4.1 17 20 1029 0 14.5 22.8 31.3 81.6 69.3 236.3
07/05 22:00 13.3 56 6.47 4.7 15 19 1029 0 15.1 23.3 32.4 84.5 72.8 248.6
07/05 21:50 13.5 55 6.43 4.6 15 15 1028.9 0 15.0 23.2 32.2 83.9 72.1 246.2
07/05 21:40 14 54 6.51 4.9 15 17 1028.8 0 15.1 23.1 32.3 84.1 72.7 248.1
07/05 21:30 14.5 52 6.47 4.8 17 22 1028.8 0 15.0 23.0 31.9 83.2 71.7 244.8
07/05 21:20 14.6 53 6.63 5.1 17 19 1028.7 0 15.4 23.2 32.5 84.7 73.6 251.4
07/05 21:10 14.7 54 6.8 5.5 19 20 1028.6 0 15.7 23.4 33.1 86.3 75.6 258.4
07/05 21:00 14.1 55 6.68 5.2 13 17 1028.5 0 15.5 23.4 32.9 85.7 74.6 255.1
07/05 20:50 14.4 53 6.55 5 13 13 1028.5 0 15.2 23.1 32.3 84.1 72.8 248.5
07/05 20:40 15.2 51 6.62 5.1 17 17 1028.4 0 15.3 23.0 32.2 83.9 72.9 249.0
07/05 20:30 15.5 50 6.61 5.1 17 20 1028.4 0 15.3 22.9 32.0 83.5 72.5 247.7
07/05 20:20 15.9 49 6.64 5.2 19 20 1028.3 0 15.3 22.8 32.0 83.4 72.5 247.7
07/05 20:10 16.1 48 6.58 5.1 17 19 1028.2 0 15.2 22.7 31.7 82.6 71.6 244.6
07/05 20:00 16.5 47 6.6 5.2 20 24 1028.1 0 15.2 22.6 31.6 82.4 71.4 244.2
07/05 19:50 16.7 47 6.68 5.3 20 22 1027.9 0 15.4 22.7 31.8 82.9 72.2 246.9
07/05 19:40 16.7 47 6.68 5.3 17 19 1027.9 0 15.4 22.7 31.8 82.9 72.2 246.9
07/05 19:30 16.6 48 6.78 5.6 15 19 1027.7 0 15.6 22.9 32.2 84.0 73.5 251.3

Last Refresh: 08-May-2026 12:07:31

Bureau of Meteorology